createdAt,value
2018-07-11T00:00:01.346Z,4.43
2018-07-11T00:02:29.687Z,4.23
2018-07-11T00:05:00.628Z,4.87
2018-07-11T00:07:32.804Z,4.23
2018-07-11T00:10:01.137Z,6.27
2018-07-11T00:12:33.445Z,4.63
2018-07-11T00:15:01.624Z,4.33
2018-07-11T00:17:29.525Z,4.07
2018-07-11T00:19:57.700Z,4.43
2018-07-11T00:22:26.210Z,3.83
2018-07-11T00:24:54.373Z,5.00
2018-07-11T00:27:22.655Z,3.90
2018-07-11T00:29:50.777Z,3.40
2018-07-11T00:32:18.944Z,3.60
2018-07-11T00:34:47.105Z,3.70
2018-07-11T00:37:15.386Z,4.07
2018-07-11T00:39:43.483Z,3.87
2018-07-11T00:42:11.655Z,4.57
2018-07-11T00:44:40.340Z,6.90
2018-07-11T00:47:08.534Z,5.23
2018-07-11T00:49:36.718Z,4.00
2018-07-11T00:52:04.935Z,4.20
2018-07-11T00:54:33.135Z,3.97
2018-07-11T00:57:01.851Z,4.17
2018-07-11T00:59:31.946Z,3.80
2018-07-11T01:02:03.905Z,3.60
2018-07-11T01:04:32.325Z,4.00
2018-07-11T01:07:02.204Z,4.13
2018-07-11T01:09:31.797Z,3.77
2018-07-11T01:12:00.058Z,4.40
2018-07-11T01:14:28.427Z,5.07
2018-07-11T01:16:56.606Z,4.73
2018-07-11T01:19:24.803Z,5.20
2018-07-11T01:22:01.715Z,4.90
2018-07-11T01:24:30.763Z,5.37
2018-07-11T01:26:59.625Z,4.60
2018-07-11T01:29:27.844Z,6.03
2018-07-11T01:31:55.772Z,5.13
2018-07-11T01:34:23.939Z,3.83
2018-07-11T01:36:52.404Z,6.00
2018-07-11T01:39:20.575Z,5.37
2018-07-11T01:41:48.756Z,6.33
2018-07-11T01:44:16.953Z,4.80
2018-07-11T01:46:48.356Z,5.20
2018-07-11T01:49:16.593Z,4.80
2018-07-11T01:51:56.751Z,5.20
2018-07-11T01:54:25.307Z,4.43
2018-07-11T01:57:06.314Z,4.93
2018-07-11T01:59:36.045Z,5.17
2018-07-11T02:02:04.704Z,4.53
2018-07-11T02:04:34.728Z,4.30
2018-07-11T02:07:02.898Z,4.80
2018-07-11T02:09:31.438Z,5.37
2018-07-11T02:11:59.590Z,4.70
2018-07-11T02:14:27.956Z,4.23
2018-07-11T02:16:56.148Z,5.00
2018-07-11T02:19:24.278Z,4.00
2018-07-11T02:21:52.744Z,5.73
2018-07-11T02:24:22.870Z,5.73
2018-07-11T02:26:51.149Z,5.13
2018-07-11T02:29:19.351Z,4.60
2018-07-11T02:31:47.467Z,4.90
2018-07-11T02:34:15.663Z,4.37
2018-07-11T02:36:43.805Z,4.37
2018-07-11T02:39:11.932Z,6.53
2018-07-11T02:41:40.079Z,4.50
2018-07-11T02:44:08.202Z,4.17
2018-07-11T02:46:41.806Z,4.43
2018-07-11T02:49:09.966Z,5.00
2018-07-11T02:51:38.126Z,6.63
2018-07-11T02:54:06.281Z,5.10
2018-07-11T02:56:34.404Z,4.90
2018-07-11T02:59:02.542Z,5.40
2018-07-11T03:01:30.722Z,6.10
2018-07-11T03:03:58.886Z,7.10
2018-07-11T03:06:27.047Z,5.20
2018-07-11T03:08:55.162Z,7.93
2018-07-11T03:11:23.307Z,5.63
2018-07-11T03:13:51.503Z,6.20
2018-07-11T03:16:19.612Z,5.90
2018-07-11T03:18:47.710Z,5.50
2018-07-11T03:21:15.834Z,5.17
2018-07-11T03:23:43.949Z,5.87
2018-07-11T03:26:12.058Z,5.57
2018-07-11T03:28:40.217Z,6.63
2018-07-11T03:31:08.388Z,5.67
2018-07-11T03:33:36.494Z,6.63
2018-07-11T03:36:04.627Z,5.37
2018-07-11T03:38:32.767Z,4.50
2018-07-11T03:41:00.874Z,5.93
2018-07-11T03:43:28.973Z,4.87
2018-07-11T03:45:57.094Z,6.53
2018-07-11T03:48:25.319Z,5.50
2018-07-11T03:50:53.469Z,4.87
2018-07-11T03:53:21.578Z,5.63
2018-07-11T03:55:49.658Z,7.93
2018-07-11T03:58:17.770Z,5.50
2018-07-11T04:00:45.854Z,5.33
2018-07-11T04:03:13.998Z,6.40
2018-07-11T04:05:42.107Z,9.20
2018-07-11T04:08:10.219Z,5.83
2018-07-11T04:10:38.333Z,5.03
2018-07-11T04:13:13.714Z,8.57
2018-07-11T04:15:41.813Z,8.30
2018-07-11T04:18:14.406Z,5.23
2018-07-11T04:20:42.641Z,6.03
2018-07-11T04:23:10.751Z,6.30
2018-07-11T04:25:38.844Z,7.13
2018-07-11T04:28:06.950Z,5.07
2018-07-11T04:30:35.082Z,7.57
2018-07-11T04:33:03.238Z,6.13
2018-07-11T04:35:31.372Z,7.20
2018-07-11T04:37:59.578Z,6.57
2018-07-11T04:40:27.714Z,6.77
2018-07-11T04:42:55.620Z,6.07
2018-07-11T04:45:24.462Z,7.03
2018-07-11T04:47:52.356Z,5.30
2018-07-11T04:50:20.638Z,9.13
2018-07-11T04:52:48.793Z,6.47
2018-07-11T04:55:16.948Z,6.40
2018-07-11T04:57:45.159Z,8.57
2018-07-11T05:00:13.298Z,6.43
2018-07-11T05:02:41.194Z,5.63
2018-07-11T05:05:09.389Z,6.07
2018-07-11T05:07:37.564Z,6.30
2018-07-11T05:10:05.739Z,5.50
2018-07-11T05:12:33.859Z,6.97
2018-07-11T05:15:02.046Z,6.77
2018-07-11T05:17:30.147Z,8.60
2018-07-11T05:19:58.262Z,7.07
2018-07-11T05:22:26.387Z,5.87
2018-07-11T05:24:54.524Z,5.23
2018-07-11T05:27:22.768Z,6.93
2018-07-11T05:29:50.889Z,6.03
2018-07-11T05:32:18.998Z,5.70
2018-07-11T05:34:47.137Z,5.53
2018-07-11T05:37:15.247Z,6.63
2018-07-11T05:39:43.468Z,5.60
2018-07-11T05:42:11.374Z,5.93
2018-07-11T05:44:39.521Z,6.10
2018-07-11T05:47:07.946Z,7.50
2018-07-11T05:49:36.096Z,5.50
2018-07-11T05:52:04.457Z,5.23
2018-07-11T05:54:33.726Z,5.93
2018-07-11T05:57:02.085Z,7.20
2018-07-11T05:59:30.719Z,6.67
2018-07-11T06:01:59.658Z,6.00
2018-07-11T06:04:27.845Z,5.50
2018-07-11T06:06:56.278Z,5.20
2018-07-11T06:09:24.420Z,6.13
2018-07-11T06:11:53.568Z,6.07
2018-07-11T06:14:21.750Z,7.40
2018-07-11T06:16:49.910Z,8.13
2018-07-11T06:19:18.367Z,9.60
2018-07-11T06:21:46.783Z,10.07
2018-07-11T06:24:15.146Z,6.07
2018-07-11T06:26:43.312Z,7.17
2018-07-11T06:29:11.427Z,7.93
2018-07-11T06:31:39.548Z,7.20
2018-07-11T06:34:08.294Z,5.80
2018-07-11T06:36:36.458Z,9.10
2018-07-11T06:39:04.842Z,8.63
2018-07-11T06:41:32.933Z,6.83
2018-07-11T06:44:01.093Z,7.27
2018-07-11T06:46:29.228Z,6.00
2018-07-11T06:48:57.428Z,8.60
2018-07-11T06:51:25.517Z,7.40
2018-07-11T06:53:53.882Z,6.73
2018-07-11T06:56:21.994Z,8.17
2018-07-11T06:58:50.094Z,8.80
2018-07-11T07:01:18.210Z,7.03
2018-07-11T07:03:46.377Z,7.07
2018-07-11T07:06:14.563Z,7.03
2018-07-11T07:08:42.660Z,7.13
2018-07-11T07:11:10.775Z,6.27
2018-07-11T07:13:39.010Z,6.70
2018-07-11T07:16:06.906Z,8.43
2018-07-11T07:18:35.055Z,7.30
2018-07-11T07:21:03.179Z,8.70
2018-07-11T07:23:31.369Z,8.97
2018-07-11T07:25:59.582Z,7.13
2018-07-11T07:28:27.699Z,7.20
2018-07-11T07:30:55.828Z,7.83
2018-07-11T07:33:23.926Z,7.57
2018-07-11T07:35:52.039Z,7.90
2018-07-11T07:38:20.158Z,7.03
2018-07-11T07:40:48.560Z,8.80
2018-07-11T07:43:16.657Z,8.67
2018-07-11T07:45:45.664Z,7.77
2018-07-11T07:48:13.839Z,9.13
2018-07-11T07:50:41.950Z,8.30
2018-07-11T07:53:10.094Z,6.87
2018-07-11T07:55:38.242Z,8.07
2018-07-11T07:58:06.351Z,7.67
2018-07-11T08:00:35.473Z,9.53
2018-07-11T08:03:03.492Z,7.10
2018-07-11T08:05:31.611Z,9.57
2018-07-11T08:07:59.732Z,7.30
2018-07-11T08:10:28.276Z,7.30
2018-07-11T08:12:56.374Z,7.33
2018-07-11T08:15:24.494Z,7.43
2018-07-11T08:17:52.606Z,8.07
2018-07-11T08:20:20.735Z,7.10
2018-07-11T08:23:25.962Z,9.17
2018-07-11T08:26:06.530Z,8.07
2018-07-11T08:30:57.099Z,6.73
2018-07-11T08:33:34.040Z,8.13
2018-07-11T08:38:14.275Z,7.60
2018-07-11T08:40:55.528Z,9.87
2018-07-11T08:43:35.094Z,10.17
2018-07-11T08:46:14.799Z,7.50
2018-07-11T08:48:50.266Z,8.27
2018-07-11T08:53:35.325Z,8.17
2018-07-11T08:57:23.882Z,6.23
2018-07-11T09:00:02.251Z,8.87
2018-07-11T09:03:46.718Z,8.27
2018-07-11T09:06:30.332Z,6.20
2018-07-11T09:09:09.466Z,6.10
2018-07-11T09:11:50.522Z,7.40
2018-07-11T09:14:28.938Z,7.60
2018-07-11T09:17:43.126Z,8.53
2018-07-11T09:20:20.175Z,10.57
2018-07-11T09:23:08.398Z,7.23
2018-07-11T09:25:36.514Z,7.63
2018-07-11T09:28:04.654Z,6.20
2018-07-11T09:30:32.827Z,6.93
2018-07-11T09:33:00.862Z,5.87
2018-07-11T09:35:29.019Z,5.93
2018-07-11T09:37:57.127Z,6.27
2018-07-11T09:40:25.226Z,7.13
2018-07-11T09:42:53.346Z,6.77
2018-07-11T09:45:21.719Z,5.67
2018-07-11T09:47:51.000Z,6.43
2018-07-11T09:50:19.175Z,8.00
2018-07-11T09:52:47.278Z,7.10
2018-07-11T09:55:15.395Z,7.07
2018-07-11T09:57:43.500Z,6.47
2018-07-11T10:00:17.138Z,9.13
2018-07-11T10:02:45.351Z,7.53
2018-07-11T10:05:13.466Z,7.53
2018-07-11T10:07:41.591Z,5.90
2018-07-11T10:10:09.719Z,6.80
2018-07-11T10:12:37.907Z,6.17
2018-07-11T10:15:06.003Z,6.77
2018-07-11T10:17:34.714Z,6.63
2018-07-11T10:20:02.873Z,7.77
2018-07-11T10:22:30.994Z,7.13
2018-07-11T10:24:59.134Z,6.50
2018-07-11T10:27:27.258Z,6.97
2018-07-11T10:29:55.402Z,6.53
2018-07-11T10:32:23.553Z,8.03
2018-07-11T10:34:51.705Z,7.13
2018-07-11T10:37:19.847Z,7.50
2018-07-11T10:39:47.998Z,7.90
2018-07-11T10:42:16.123Z,6.77
2018-07-11T10:44:44.241Z,7.23
2018-07-11T10:47:13.802Z,7.13
2018-07-11T10:49:42.899Z,10.60
2018-07-11T10:52:11.018Z,7.63
2018-07-11T10:54:39.676Z,8.03
2018-07-11T10:57:07.579Z,8.67
2018-07-11T10:59:35.706Z,6.83
2018-07-11T11:02:03.859Z,8.60
2018-07-11T11:04:31.982Z,7.70
2018-07-11T11:07:00.153Z,8.30
2018-07-11T11:09:28.302Z,7.50
2018-07-11T11:11:56.415Z,7.10
2018-07-11T11:14:24.546Z,7.63
2018-07-11T11:16:52.671Z,7.20
2018-07-11T11:19:20.830Z,8.73
2018-07-11T11:21:49.020Z,7.43
2018-07-11T11:24:17.144Z,8.27
2018-07-11T11:26:45.415Z,7.90
2018-07-11T11:29:13.567Z,7.00
2018-07-11T11:31:41.702Z,7.10
2018-07-11T11:34:09.895Z,9.73
2018-07-11T11:36:38.043Z,7.87
2018-07-11T11:39:06.198Z,7.20
2018-07-11T11:41:34.403Z,7.73
2018-07-11T11:44:03.031Z,7.93
2018-07-11T11:46:31.211Z,5.83
2018-07-11T11:48:59.362Z,6.80
2018-07-11T11:51:27.475Z,6.83
2018-07-11T11:53:55.580Z,6.83
2018-07-11T11:56:23.686Z,5.47
2018-07-11T11:58:51.794Z,5.10
2018-07-11T12:01:19.953Z,5.30
2018-07-11T12:03:48.129Z,8.53
2018-07-11T12:06:16.281Z,5.17
2018-07-11T12:08:44.700Z,5.20
2018-07-11T12:11:12.832Z,6.07
2018-07-11T12:13:41.847Z,5.40
2018-07-11T12:16:10.202Z,7.60
2018-07-11T12:18:38.406Z,6.93
2018-07-11T12:21:06.631Z,7.37
2018-07-11T12:23:34.897Z,6.07
2018-07-11T12:26:08.559Z,5.93
2018-07-11T12:28:36.836Z,5.07
2018-07-11T12:31:07.120Z,6.57
2018-07-11T12:33:35.665Z,5.17
2018-07-11T12:36:04.121Z,5.80
2018-07-11T12:38:33.108Z,4.87
2018-07-11T12:41:01.276Z,4.63
2018-07-11T12:43:29.590Z,4.63
2018-07-11T12:45:58.160Z,3.93
2018-07-11T12:48:31.709Z,4.53
2018-07-11T12:50:59.873Z,6.60
2018-07-11T12:53:28.586Z,4.20
2018-07-11T12:55:56.728Z,4.30
2018-07-11T12:58:25.005Z,4.57
2018-07-11T13:00:53.111Z,4.50
2018-07-11T13:03:21.255Z,5.60
2018-07-11T13:05:49.479Z,4.27
2018-07-11T13:08:18.264Z,3.50
2018-07-11T13:10:46.400Z,4.00
2018-07-11T13:13:14.589Z,4.93
2018-07-11T13:15:42.756Z,5.33
2018-07-11T13:18:10.910Z,4.87
2018-07-11T13:20:39.088Z,2.80
2018-07-11T13:23:07.245Z,3.00
2018-07-11T13:25:35.403Z,2.60
2018-07-11T13:28:03.577Z,2.60
2018-07-11T13:30:31.845Z,3.10
2018-07-11T13:32:59.988Z,3.00
2018-07-11T13:35:28.160Z,3.13
2018-07-11T13:37:56.304Z,3.50
2018-07-11T13:40:24.472Z,4.00
2018-07-11T13:42:52.619Z,3.87
2018-07-11T13:45:20.792Z,3.70
2018-07-11T13:47:53.174Z,2.87
2018-07-11T13:50:21.187Z,3.40
2018-07-11T13:52:49.351Z,3.17
2018-07-11T13:55:17.539Z,2.87
2018-07-11T13:57:45.676Z,3.33
2018-07-11T14:00:13.909Z,4.60
2018-07-11T14:02:42.056Z,4.50
2018-07-11T14:05:10.246Z,3.08
2018-07-11T14:07:38.388Z,3.17
2018-07-11T14:10:06.920Z,2.62
2018-07-11T14:12:35.088Z,2.62
2018-07-11T14:15:03.256Z,2.70
2018-07-11T14:17:31.493Z,2.70
2018-07-11T14:19:59.448Z,3.67
2018-07-11T14:22:27.580Z,4.78
2018-07-11T14:24:55.732Z,3.22
2018-07-11T14:27:26.538Z,2.42
2018-07-11T14:29:54.673Z,3.37
2018-07-11T14:32:25.040Z,3.95
2018-07-11T14:34:53.178Z,4.05
2018-07-11T14:37:21.663Z,3.35
2018-07-11T14:39:49.868Z,2.42
2018-07-11T14:42:18.529Z,5.45
2018-07-11T14:44:46.711Z,2.50
2018-07-11T14:47:20.352Z,2.30
2018-07-11T14:49:48.515Z,2.77
2018-07-11T14:52:16.653Z,3.30
2018-07-11T14:54:44.821Z,2.72
2018-07-11T14:57:13.114Z,2.85
2018-07-11T14:59:41.239Z,2.20
2018-07-11T15:02:09.381Z,2.60
2018-07-11T15:04:37.575Z,4.00
2018-07-11T15:07:05.900Z,2.47
2018-07-11T15:09:34.078Z,2.55
2018-07-11T15:12:02.288Z,2.83
2018-07-11T15:14:30.747Z,2.25
2018-07-11T15:16:58.962Z,3.35
2018-07-11T15:19:27.024Z,2.40
2018-07-11T15:21:55.212Z,4.05
2018-07-11T15:24:23.389Z,3.62
2018-07-11T15:26:51.593Z,3.58
2018-07-11T15:29:19.999Z,2.87
2018-07-11T15:31:48.177Z,3.15
2018-07-11T15:34:17.000Z,2.33
2018-07-11T15:36:45.193Z,2.65
2018-07-11T15:39:13.365Z,2.50
2018-07-11T15:41:41.551Z,2.60
2018-07-11T15:44:09.756Z,2.40
2018-07-11T15:46:37.986Z,2.77
2018-07-11T15:49:06.199Z,3.90
2018-07-11T15:51:34.384Z,2.52
2018-07-11T15:54:02.551Z,3.67
2018-07-11T15:56:30.904Z,2.20
2018-07-11T15:59:05.790Z,2.20
2018-07-11T16:01:37.213Z,3.08
2018-07-11T16:04:05.404Z,2.10
2018-07-11T16:06:33.566Z,2.10
2018-07-11T16:09:04.605Z,2.42
2018-07-11T16:11:32.850Z,2.62
2018-07-11T16:14:01.092Z,2.42
2018-07-11T16:16:29.247Z,2.77
2018-07-11T16:18:57.628Z,3.55
2018-07-11T16:21:25.839Z,2.10
2018-07-11T16:23:53.980Z,4.22
2018-07-11T16:26:22.324Z,2.12
2018-07-11T16:28:50.829Z,1.80
2018-07-11T16:31:18.967Z,1.95
2018-07-11T16:33:47.100Z,2.42
2018-07-11T16:36:15.881Z,2.17
2018-07-11T16:38:44.027Z,1.87
2018-07-11T16:41:12.155Z,2.83
2018-07-11T16:43:40.139Z,2.30
2018-07-11T16:46:08.312Z,2.42
2018-07-11T16:48:36.816Z,2.35
2018-07-11T16:51:05.963Z,2.05
2018-07-11T16:53:34.132Z,1.80
2018-07-11T16:56:02.274Z,4.22
2018-07-11T16:58:34.773Z,2.37
2018-07-11T17:01:03.376Z,2.17
2018-07-11T17:03:34.840Z,1.90
2018-07-11T17:06:05.451Z,2.20
2018-07-11T17:08:36.221Z,1.80
2018-07-11T17:11:13.161Z,3.60
2018-07-11T17:13:59.853Z,3.30
2018-07-11T17:16:42.112Z,2.23
2018-07-11T17:19:13.381Z,2.27
2018-07-11T17:21:46.472Z,2.07
2018-07-11T17:24:18.831Z,2.10
2018-07-11T17:26:48.316Z,2.40
2018-07-11T17:29:25.437Z,2.60
2018-07-11T17:31:59.432Z,3.40
2018-07-11T17:34:27.648Z,2.77
2018-07-11T17:36:58.385Z,2.70
2018-07-11T17:39:30.213Z,2.30
2018-07-11T17:41:58.404Z,2.50
2018-07-11T17:44:27.041Z,2.73
2018-07-11T17:46:55.801Z,3.70
2018-07-11T17:52:01.895Z,3.70
2018-07-11T17:54:41.888Z,2.43
2018-07-11T17:57:12.604Z,3.13
2018-07-11T17:59:46.262Z,2.27
2018-07-11T18:02:20.628Z,3.37
2018-07-11T18:05:04.390Z,2.70
2018-07-11T18:07:44.264Z,3.70
2018-07-11T18:10:30.781Z,2.60
2018-07-11T18:13:37.147Z,4.10
2018-07-11T18:17:12.970Z,2.90
2018-07-11T18:19:50.777Z,2.43
2018-07-11T18:22:30.419Z,2.70
2018-07-11T18:25:06.592Z,2.23
2018-07-11T18:28:11.676Z,2.40
2018-07-11T18:31:56.833Z,2.70
2018-07-11T18:35:35.836Z,3.87
2018-07-11T18:38:09.522Z,2.37
2018-07-11T18:40:48.918Z,2.70
2018-07-11T18:43:45.728Z,3.23
2018-07-11T18:46:56.340Z,3.40
2018-07-11T18:49:35.168Z,3.80
2018-07-11T18:52:24.180Z,2.70
2018-07-11T18:54:54.227Z,2.60
2018-07-11T18:57:30.929Z,2.60
2018-07-11T19:00:10.149Z,2.53
2018-07-11T19:02:46.670Z,2.50
2018-07-11T19:05:53.425Z,2.83
2018-07-11T19:08:25.663Z,2.57
2018-07-11T19:11:35.227Z,2.60
2018-07-11T19:14:08.533Z,2.90
2018-07-11T19:18:54.867Z,4.33
2018-07-11T19:21:31.260Z,2.83
2018-07-11T19:24:04.311Z,3.00
2018-07-11T19:26:44.474Z,4.10
2018-07-11T19:29:23.606Z,4.03
2018-07-11T19:34:09.674Z,2.60
2018-07-11T19:36:43.346Z,4.53
2018-07-11T19:40:20.260Z,3.50
2018-07-11T19:45:02.953Z,3.90
2018-07-11T19:47:41.002Z,3.00
2018-07-11T19:50:17.740Z,3.00
2018-07-11T19:52:52.448Z,3.03
2018-07-11T19:55:34.764Z,3.50
2018-07-11T19:58:03.203Z,4.60
2018-07-11T20:00:31.537Z,3.00
2018-07-11T20:02:59.768Z,3.63
2018-07-11T20:05:28.035Z,3.03
2018-07-11T20:07:56.322Z,3.83
2018-07-11T20:10:24.500Z,3.07
2018-07-11T20:12:52.717Z,3.20
2018-07-11T20:15:20.981Z,3.13
2018-07-11T20:17:49.111Z,3.53
2018-07-11T20:20:17.274Z,3.90
2018-07-11T20:22:45.496Z,3.10
2018-07-11T20:25:13.769Z,3.33
2018-07-11T20:27:41.974Z,3.57
2018-07-11T20:30:10.305Z,3.90
2018-07-11T20:32:38.494Z,3.50
2018-07-11T20:35:06.693Z,4.53
2018-07-11T20:37:35.389Z,3.20
2018-07-11T20:40:03.587Z,3.53
2018-07-11T20:42:31.832Z,3.53
2018-07-11T20:45:00.049Z,3.77
2018-07-11T20:47:28.217Z,4.47
2018-07-11T20:49:56.408Z,3.90
2018-07-11T20:52:24.584Z,4.13
2018-07-11T20:54:52.759Z,5.13
2018-07-11T20:57:20.965Z,3.50
2018-07-11T21:00:00.525Z,4.23
2018-07-11T21:02:40.185Z,3.80
2018-07-11T21:06:49.349Z,5.63
2018-07-11T21:10:28.671Z,4.03
2018-07-11T21:15:12.763Z,4.17
2018-07-11T21:18:52.128Z,5.23
2018-07-11T21:21:20.428Z,5.43
2018-07-11T21:23:48.572Z,4.13
2018-07-11T21:26:16.889Z,4.20
2018-07-11T21:28:45.056Z,4.57
2018-07-11T21:31:13.221Z,5.33
2018-07-11T21:33:41.368Z,3.70
2018-07-11T21:36:09.533Z,3.93
2018-07-11T21:38:37.708Z,3.77
2018-07-11T21:41:05.888Z,3.70
2018-07-11T21:43:34.055Z,3.97
2018-07-11T21:46:02.578Z,4.03
2018-07-11T21:48:30.762Z,4.40
2018-07-11T21:50:58.920Z,3.53
2018-07-11T21:53:27.091Z,3.73
2018-07-11T21:55:55.244Z,3.93
2018-07-11T21:58:23.453Z,4.40
2018-07-11T22:00:51.645Z,4.03
2018-07-11T22:03:19.790Z,4.40
2018-07-11T22:05:47.991Z,4.23
2018-07-11T22:08:16.154Z,3.93
2018-07-11T22:10:44.325Z,3.80
2018-07-11T22:13:12.545Z,4.83
2018-07-11T22:15:40.720Z,4.37
2018-07-11T22:18:20.253Z,5.83
2018-07-11T22:20:47.440Z,4.13
2018-07-11T22:23:14.652Z,5.10
2018-07-11T22:25:41.853Z,4.43
2018-07-11T22:28:09.114Z,4.73
2018-07-11T22:30:36.301Z,4.07
2018-07-11T22:33:03.505Z,4.33
2018-07-11T22:35:30.711Z,5.10
2018-07-11T22:37:57.916Z,6.07
2018-07-11T22:40:25.104Z,4.00
2018-07-11T22:42:52.575Z,4.40
2018-07-11T22:45:19.785Z,4.73
2018-07-11T22:47:46.976Z,4.60
2018-07-11T22:50:14.170Z,6.17
2018-07-11T22:52:41.354Z,6.13
2018-07-11T22:55:08.575Z,4.93
2018-07-11T22:57:35.754Z,4.77
2018-07-11T23:00:02.979Z,4.90
2018-07-11T23:02:30.155Z,5.43
2018-07-11T23:04:57.332Z,5.20
2018-07-11T23:07:24.533Z,5.47
2018-07-11T23:09:51.732Z,5.33
2018-07-11T23:12:18.904Z,5.43
2018-07-11T23:14:46.104Z,5.33
2018-07-11T23:17:13.288Z,5.17
2018-07-11T23:19:40.504Z,5.50
2018-07-11T23:22:08.333Z,5.40
2018-07-11T23:24:35.522Z,5.33
2018-07-11T23:27:02.717Z,5.30
2018-07-11T23:29:29.900Z,5.70
2018-07-11T23:31:57.076Z,5.53
2018-07-11T23:34:24.256Z,5.77
2018-07-11T23:36:51.464Z,5.40
2018-07-11T23:39:18.660Z,5.03
2018-07-11T23:41:45.828Z,5.40
2018-07-11T23:44:13.019Z,5.43
2018-07-11T23:46:40.208Z,5.83
2018-07-11T23:49:07.407Z,5.33
2018-07-11T23:51:34.606Z,4.80
2018-07-11T23:54:01.812Z,5.97
2018-07-11T23:56:28.993Z,4.67
2018-07-11T23:58:56.169Z,4.80
